Flight Track Log - Related Links

Times and Time Zones

All times are in EDT time to prevent confusion due to time zone crossing. See the ASQ5740 flight status page for this flight to view local times or setup timezone preferences in your user account.

Time Position Orientation Groundspeed Altitude Reporting Facility
EDT Latitude Longitude Course Direction KTS MPH feet Rate Location/Type
10:20AM 42.1669 -83.4100 229° Southwest 218 251 2,700  Level Cleveland Center
10:21AM 42.1389 -83.4533 229° Southwest 249 287 3,900 2,094 Climbing Cleveland Center
10:22AM 42.1178 -83.5450 253° West 273 314 6,400 2,300 Climbing Cleveland Center
10:23AM 42.1592 -83.6336 302° West 295 339 8,500 1,900 Climbing Cleveland Center
10:24AM 42.3019 -83.7428 285° West  Level FlightAware Approximate
10:24AM 42.2044 -83.7311 302° West 327 376 10,200  Level Cleveland Center
10:25AM 42.2558 -83.8375 303° West 327 376 11,900 1,450 Climbing Cleveland Center
10:26AM 42.3069 -83.9442 303° West 333 383 13,100 1,200 Climbing Cleveland Center
10:27AM 42.3511 -84.0644 296° West 339 390 14,300 1,100 Climbing Cleveland Center
10:28AM 42.3742 -84.1978 283° West 352 405 15,300 950 Climbing Cleveland Center
10:29AM 42.3864 -84.3364 277° West 365 420 16,200 900 Climbing Cleveland Center
10:30AM 42.4003 -84.4806 277° West 377 434 17,100 900 Climbing Cleveland Center
10:31AM 42.4100 -84.6219 275° West 387 445 18,000 818 Climbing Cleveland Center
10:32AM 42.4267 -84.7831 278° West 387 445 18,900 896 Climbing Chicago Center
10:33AM 42.4400 -84.9567 276° West 385 443 20,000 927 Climbing Chicago Center
10:34AM 42.4506 -85.1011 276° West 386 444 20,800 683 Climbing Chicago Center
10:35AM 42.4519 -85.2483 271° West 391 450 21,400 532 Climbing Chicago Center
10:36AM 42.4536 -85.3989 271° West 397 457 21,900 387 Climbing Chicago Center
10:37AM 42.4542 -85.5525 270° West 405 466 22,200 -97 Climbing Chicago Center
10:38AM 42.4561 -85.7119 271° West 417 480 21,700 -484 Descending Chicago Center
10:39AM 42.4567 -85.8764 270° West 432 497 21,200 -581 Descending Chicago Center
10:40AM 42.4572 -86.0672 270° West 421 484 20,500 -581 Descending Chicago Center
10:41AM 42.4569 -86.2283 270° West 425 489 20,000 -290 Descending Chicago Center
10:42AM 42.4572 -86.3903 270° West 427 491 19,900 -629 Descending Chicago Center
10:43AM 42.4569 -86.5500 270° West 423 487 18,700 -1,548 Descending Chicago Center
10:44AM 42.4589 -86.7153 271° West 411 473 16,700 -2,081 Descending Chicago Center
10:45AM 42.4586 -86.8478 270° West 386 444 14,400 -2,177 Descending Chicago Center
10:46AM 42.4581 -86.9817 270° West 365 420 12,200 -2,177 Descending Chicago Center
10:47AM 42.4483 -87.1342 265° West 342 394 9,900 -1,403 Descending Chicago Center
10:48AM 42.4197 -87.2372 249° West 295 339 9,300 -484 Descending Chicago Center
10:49AM 42.3911 -87.3383 249° West 291 335 8,900 -774 Descending Chicago Center
10:50AM 42.3658 -87.4406 252° West 282 325 7,700 -919 Descending Chicago Center
10:52AM 42.3283 -87.5247 239° Southwest 274 315 7,000 -339 Descending Chicago Center
10:53AM 42.2739 -87.5883 221° Southwest 259 298 7,000 -484 Level Chicago Center
10:54AM 42.2058 -87.6647 220° Southwest 265 305 6,000 -1,210 Descending Chicago Center
10:55AM 42.1500 -87.7253 219° Southwest 260 299 4,500 -1,452 Descending Chicago Center

Login

Don't have an account? Register now (free) for customized features, flight alerts, and more!